createdAt,value
2023-05-10T00:07:29.763Z,99.90
2023-05-10T00:17:31.713Z,99.90
2023-05-10T00:27:35.080Z,99.90
2023-05-10T00:37:37.024Z,99.90
2023-05-10T00:47:41.154Z,99.90
2023-05-10T00:57:43.396Z,99.90
2023-05-10T01:07:46.760Z,99.90
2023-05-10T01:17:49.883Z,99.90
2023-05-10T01:28:30.406Z,99.90
2023-05-10T01:38:41.009Z,99.90
2023-05-10T01:48:48.147Z,99.90
2023-05-10T01:58:52.841Z,99.90
2023-05-10T02:08:56.025Z,99.90
2023-05-10T02:19:02.117Z,99.90
2023-05-10T02:29:06.580Z,99.90
2023-05-10T02:39:10.189Z,99.90
2023-05-10T02:49:13.383Z,99.90
2023-05-10T02:59:16.893Z,99.90
2023-05-10T03:09:19.084Z,99.90
2023-05-10T03:19:27.315Z,99.90
2023-05-10T03:29:30.346Z,99.90
2023-05-10T03:39:33.683Z,99.90
2023-05-10T03:49:35.584Z,99.90
2023-05-10T03:59:38.987Z,99.90
2023-05-10T04:09:40.930Z,99.90
2023-05-10T04:19:44.213Z,99.90
2023-05-10T04:29:46.150Z,99.90
2023-05-10T04:39:49.459Z,99.90
2023-05-10T04:49:51.379Z,99.90
2023-05-10T04:59:54.675Z,99.90
2023-05-10T05:09:56.617Z,99.90
2023-05-10T05:20:00.034Z,99.90
2023-05-10T05:30:02.031Z,99.90
2023-05-10T05:40:06.593Z,99.90
2023-05-10T05:50:09.360Z,99.90
2023-05-10T06:00:14.011Z,99.90
2023-05-10T06:10:16.096Z,99.90
2023-05-10T06:20:19.573Z,99.90
2023-05-10T06:30:21.703Z,99.90
2023-05-10T06:40:25.066Z,99.90
2023-05-10T06:50:27.001Z,99.90
2023-05-10T07:00:30.358Z,99.90
2023-05-10T07:10:32.332Z,99.90
2023-05-10T07:20:35.645Z,99.90
2023-05-10T07:30:37.771Z,99.90
2023-05-10T07:40:41.283Z,99.90
2023-05-10T07:50:43.229Z,99.90
2023-05-10T08:00:46.507Z,99.90
2023-05-10T08:10:48.410Z,99.90
2023-05-10T08:20:51.719Z,99.90
2023-05-10T08:30:56.198Z,99.90
2023-05-10T08:41:03.429Z,99.90
2023-05-10T08:51:06.033Z,99.90
2023-05-10T09:01:13.675Z,99.90
2023-05-10T09:11:15.871Z,99.90
2023-05-10T09:21:20.745Z,99.90
2023-05-10T09:31:22.858Z,99.70
2023-05-10T09:41:32.359Z,99.40
2023-05-10T09:51:36.936Z,97.50
2023-05-10T10:01:40.782Z,96.50
2023-05-10T10:11:44.768Z,97.90
2023-05-10T10:21:48.549Z,99.00
2023-05-10T10:31:58.428Z,96.80
2023-05-10T10:42:01.831Z,95.10
2023-05-10T10:52:21.814Z,97.60
2023-05-10T11:02:44.765Z,94.80
2023-05-10T11:12:54.073Z,96.50
2023-05-10T11:22:57.374Z,96.80
2023-05-10T11:32:59.400Z,97.60
2023-05-10T11:43:03.246Z,96.90
2023-05-10T11:53:05.176Z,97.50
2023-05-10T12:03:08.702Z,96.20
2023-05-10T12:13:14.770Z,96.20
2023-05-10T12:23:18.119Z,95.00
2023-05-10T12:33:21.923Z,94.80
2023-05-10T12:43:25.479Z,95.60
2023-05-10T12:53:27.365Z,96.40
2023-05-10T13:03:30.669Z,96.10
2023-05-10T13:13:33.409Z,96.30
2023-05-10T13:23:36.689Z,97.50
2023-05-10T13:33:38.624Z,97.60
2023-05-10T13:43:41.912Z,97.80
2023-05-10T13:53:43.791Z,98.20
2023-05-10T14:03:47.134Z,97.00
2023-05-10T14:13:49.066Z,98.70
2023-05-10T14:23:52.358Z,99.90
2023-05-10T14:33:56.109Z,99.90
2023-05-10T14:43:59.446Z,99.90
2023-05-10T14:54:01.384Z,99.90
2023-05-10T15:04:04.734Z,99.90
2023-05-10T15:14:06.958Z,99.90
2023-05-10T15:24:10.298Z,98.80
2023-05-10T15:34:12.194Z,98.10
2023-05-10T15:44:15.569Z,98.90
2023-05-10T15:54:17.489Z,99.90
2023-05-10T16:04:39.799Z,99.90
2023-05-10T16:14:56.515Z,99.90
2023-05-10T18:39:44.986Z,99.90
2023-05-10T18:49:49.475Z,99.90
2023-05-10T18:59:52.811Z,99.90
2023-05-10T19:09:54.806Z,99.90
2023-05-10T19:19:58.159Z,99.90
2023-05-10T19:30:00.203Z,99.90
2023-05-10T19:40:03.757Z,99.90
2023-05-10T19:50:06.902Z,99.90
2023-05-10T20:00:12.044Z,99.90
2023-05-10T20:10:13.996Z,99.90
2023-05-10T20:20:18.363Z,99.90
2023-05-10T20:30:20.643Z,99.90
2023-05-10T20:40:24.143Z,99.90
2023-05-10T20:50:31.567Z,99.90
2023-05-10T21:00:34.877Z,99.90
2023-05-10T21:10:36.849Z,99.90
2023-05-10T21:20:40.195Z,99.90
2023-05-10T21:30:42.175Z,99.90
2023-05-10T21:40:45.586Z,99.90
2023-05-10T21:50:47.499Z,99.90
2023-05-10T22:00:51.013Z,99.90
2023-05-10T22:10:52.953Z,99.90
2023-05-10T22:20:56.223Z,99.90
2023-05-10T22:30:58.216Z,99.90
2023-05-10T22:41:01.555Z,99.90
2023-05-10T22:51:03.712Z,99.90
2023-05-10T23:01:07.089Z,99.90
2023-05-10T23:11:09.008Z,99.90
2023-05-10T23:21:12.284Z,99.90
2023-05-10T23:31:14.270Z,99.90
2023-05-10T23:41:17.559Z,99.90
2023-05-10T23:51:19.570Z,99.90
